sensor_id;sensor_type;location;lat;lon;timestamp;temperature;humidity
16040;DHT22;8124;48.634;8.120;2024-03-02T00:02:21;8.60;98.70
16040;DHT22;8124;48.634;8.120;2024-03-02T00:07:25;8.70;99.80
16040;DHT22;8124;48.634;8.120;2024-03-02T00:12:28;8.60;99.90
16040;DHT22;8124;48.634;8.120;2024-03-02T00:17:31;8.60;99.90
16040;DHT22;8124;48.634;8.120;2024-03-02T00:22:36;8.60;99.90
16040;DHT22;8124;48.634;8.120;2024-03-02T00:27:39;8.70;99.90
16040;DHT22;8124;48.634;8.120;2024-03-02T00:32:43;8.60;99.90
16040;DHT22;8124;48.634;8.120;2024-03-02T00:37:47;8.30;99.90
16040;DHT22;8124;48.634;8.120;2024-03-02T00:42:50;7.90;99.90
16040;DHT22;8124;48.634;8.120;2024-03-02T00:47:54;7.70;99.90
16040;DHT22;8124;48.634;8.120;2024-03-02T00:52:58;7.70;99.90
16040;DHT22;8124;48.634;8.120;2024-03-02T00:58:02;7.40;99.90
16040;DHT22;8124;48.634;8.120;2024-03-02T01:03:05;7.80;99.90
16040;DHT22;8124;48.634;8.120;2024-03-02T01:08:11;7.90;99.90
16040;DHT22;8124;48.634;8.120;2024-03-02T01:13:20;8.00;99.90
16040;DHT22;8124;48.634;8.120;2024-03-02T01:18:23;7.80;99.90
16040;DHT22;8124;48.634;8.120;2024-03-02T01:23:28;7.30;99.90
16040;DHT22;8124;48.634;8.120;2024-03-02T01:28:31;7.00;99.90
16040;DHT22;8124;48.634;8.120;2024-03-02T01:33:33;7.20;99.90
16040;DHT22;8124;48.634;8.120;2024-03-02T01:38:38;7.40;99.90
16040;DHT22;8124;48.634;8.120;2024-03-02T01:43:41;7.60;99.90
16040;DHT22;8124;48.634;8.120;2024-03-02T01:48:44;7.60;99.90
16040;DHT22;8124;48.634;8.120;2024-03-02T01:53:49;7.60;99.90
16040;DHT22;8124;48.634;8.120;2024-03-02T01:58:51;7.50;99.90
16040;DHT22;8124;48.634;8.120;2024-03-02T02:03:55;7.50;99.90
16040;DHT22;8124;48.634;8.120;2024-03-02T02:08:59;7.50;99.90
16040;DHT22;8124;48.634;8.120;2024-03-02T02:14:03;7.50;99.90
16040;DHT22;8124;48.634;8.120;2024-03-02T02:19:06;7.50;99.90
16040;DHT22;8124;48.634;8.120;2024-03-02T02:24:11;7.40;99.90
16040;DHT22;8124;48.634;8.120;2024-03-02T02:29:15;7.50;99.90
16040;DHT22;8124;48.634;8.120;2024-03-02T02:34:18;7.20;99.90
16040;DHT22;8124;48.634;8.120;2024-03-02T02:39:22;7.30;99.90
16040;DHT22;8124;48.634;8.120;2024-03-02T02:44:25;7.30;99.90
16040;DHT22;8124;48.634;8.120;2024-03-02T02:49:28;7.00;99.90
16040;DHT22;8124;48.634;8.120;2024-03-02T02:54:33;7.10;99.90
16040;DHT22;8124;48.634;8.120;2024-03-02T02:59:36;7.10;99.90
16040;DHT22;8124;48.634;8.120;2024-03-02T03:04:40;7.20;99.90
16040;DHT22;8124;48.634;8.120;2024-03-02T03:09:44;7.00;99.90
16040;DHT22;8124;48.634;8.120;2024-03-02T03:14:47;6.60;99.90
16040;DHT22;8124;48.634;8.120;2024-03-02T03:19:50;6.70;99.90
16040;DHT22;8124;48.634;8.120;2024-03-02T03:24:55;6.80;99.90
16040;DHT22;8124;48.634;8.120;2024-03-02T03:29:58;6.80;99.90
16040;DHT22;8124;48.634;8.120;2024-03-02T03:35:02;6.80;99.90
16040;DHT22;8124;48.634;8.120;2024-03-02T03:40:07;6.80;99.90
16040;DHT22;8124;48.634;8.120;2024-03-02T03:45:12;6.90;99.90
16040;DHT22;8124;48.634;8.120;2024-03-02T03:50:16;6.90;99.90
16040;DHT22;8124;48.634;8.120;2024-03-02T03:55:20;6.80;99.90
16040;DHT22;8124;48.634;8.120;2024-03-02T04:00:23;6.50;99.90
16040;DHT22;8124;48.634;8.120;2024-03-02T04:05:27;5.90;99.90
16040;DHT22;8124;48.634;8.120;2024-03-02T04:10:31;5.70;99.90
16040;DHT22;8124;48.634;8.120;2024-03-02T04:15:35;6.00;99.90
16040;DHT22;8124;48.634;8.120;2024-03-02T04:20:38;5.90;99.90
16040;DHT22;8124;48.634;8.120;2024-03-02T04:25:43;5.70;99.90
16040;DHT22;8124;48.634;8.120;2024-03-02T04:30:46;5.70;99.90
16040;DHT22;8124;48.634;8.120;2024-03-02T04:35:49;5.90;99.90
16040;DHT22;8124;48.634;8.120;2024-03-02T04:40:54;5.90;99.90
16040;DHT22;8124;48.634;8.120;2024-03-02T04:45:58;5.80;99.90
16040;DHT22;8124;48.634;8.120;2024-03-02T04:51:01;6.10;99.90
16040;DHT22;8124;48.634;8.120;2024-03-02T04:56:06;6.00;99.90
16040;DHT22;8124;48.634;8.120;2024-03-02T05:01:32;5.90;99.90
16040;DHT22;8124;48.634;8.120;2024-03-02T05:06:35;6.00;99.90
16040;DHT22;8124;48.634;8.120;2024-03-02T05:11:39;6.00;99.90
16040;DHT22;8124;48.634;8.120;2024-03-02T05:17:04;6.00;99.90
16040;DHT22;8124;48.634;8.120;2024-03-02T05:22:07;6.20;99.90
16040;DHT22;8124;48.634;8.120;2024-03-02T05:27:12;6.10;99.90
16040;DHT22;8124;48.634;8.120;2024-03-02T05:32:15;5.80;99.90
16040;DHT22;8124;48.634;8.120;2024-03-02T05:37:18;5.50;99.90
16040;DHT22;8124;48.634;8.120;2024-03-02T05:42:23;5.80;99.90
16040;DHT22;8124;48.634;8.120;2024-03-02T05:47:26;6.10;99.90
16040;DHT22;8124;48.634;8.120;2024-03-02T05:52:29;6.00;99.90
16040;DHT22;8124;48.634;8.120;2024-03-02T05:57:34;5.80;99.90
16040;DHT22;8124;48.634;8.120;2024-03-02T06:02:51;5.60;99.90
16040;DHT22;8124;48.634;8.120;2024-03-02T06:07:54;5.80;99.90
16040;DHT22;8124;48.634;8.120;2024-03-02T06:12:59;5.80;99.90
16040;DHT22;8124;48.634;8.120;2024-03-02T06:18:02;5.90;99.90
16040;DHT22;8124;48.634;8.120;2024-03-02T06:23:05;5.90;99.90
16040;DHT22;8124;48.634;8.120;2024-03-02T06:28:09;5.90;99.90
16040;DHT22;8124;48.634;8.120;2024-03-02T06:33:12;5.80;99.90
16040;DHT22;8124;48.634;8.120;2024-03-02T06:38:15;5.90;99.90
16040;DHT22;8124;48.634;8.120;2024-03-02T06:43:20;5.80;99.90
16040;DHT22;8124;48.634;8.120;2024-03-02T06:48:24;5.60;99.90
16040;DHT22;8124;48.634;8.120;2024-03-02T06:53:28;5.90;99.90
16040;DHT22;8124;48.634;8.120;2024-03-02T06:58:33;6.00;99.90
16040;DHT22;8124;48.634;8.120;2024-03-02T07:03:36;6.00;99.90
16040;DHT22;8124;48.634;8.120;2024-03-02T07:08:41;5.90;99.90
16040;DHT22;8124;48.634;8.120;2024-03-02T07:13:45;6.20;99.90
16040;DHT22;8124;48.634;8.120;2024-03-02T07:18:48;6.40;99.90
16040;DHT22;8124;48.634;8.120;2024-03-02T07:23:53;6.10;99.90
16040;DHT22;8124;48.634;8.120;2024-03-02T07:28:58;6.40;99.90
16040;DHT22;8124;48.634;8.120;2024-03-02T07:34:01;6.40;99.90
16040;DHT22;8124;48.634;8.120;2024-03-02T07:39:05;6.70;99.90
16040;DHT22;8124;48.634;8.120;2024-03-02T07:44:10;6.90;99.90
16040;DHT22;8124;48.634;8.120;2024-03-02T07:49:16;6.90;99.90
16040;DHT22;8124;48.634;8.120;2024-03-02T07:54:19;7.00;99.90
16040;DHT22;8124;48.634;8.120;2024-03-02T07:59:23;7.20;99.90
16040;DHT22;8124;48.634;8.120;2024-03-02T08:04:26;7.30;99.90
16040;DHT22;8124;48.634;8.120;2024-03-02T08:09:29;7.20;99.90
16040;DHT22;8124;48.634;8.120;2024-03-02T08:14:34;7.30;99.90
16040;DHT22;8124;48.634;8.120;2024-03-02T08:19:37;7.60;99.90
16040;DHT22;8124;48.634;8.120;2024-03-02T08:24:40;7.60;99.90
16040;DHT22;8124;48.634;8.120;2024-03-02T08:29:45;7.80;99.90
16040;DHT22;8124;48.634;8.120;2024-03-02T08:34:47;8.00;99.90
16040;DHT22;8124;48.634;8.120;2024-03-02T08:39:50;8.10;99.90
16040;DHT22;8124;48.634;8.120;2024-03-02T08:44:55;8.20;99.90
16040;DHT22;8124;48.634;8.120;2024-03-02T08:49:59;8.30;99.90
16040;DHT22;8124;48.634;8.120;2024-03-02T08:55:03;8.20;99.90
16040;DHT22;8124;48.634;8.120;2024-03-02T09:00:09;8.30;99.90
16040;DHT22;8124;48.634;8.120;2024-03-02T09:05:12;8.40;99.90
16040;DHT22;8124;48.634;8.120;2024-03-02T09:10:15;8.50;99.90
16040;DHT22;8124;48.634;8.120;2024-03-02T09:15:20;8.60;99.90
16040;DHT22;8124;48.634;8.120;2024-03-02T09:20:23;8.80;99.90
16040;DHT22;8124;48.634;8.120;2024-03-02T09:25:26;9.00;99.90
16040;DHT22;8124;48.634;8.120;2024-03-02T09:30:30;9.10;99.90
16040;DHT22;8124;48.634;8.120;2024-03-02T09:35:33;9.20;99.90
16040;DHT22;8124;48.634;8.120;2024-03-02T09:40:36;9.40;99.90
16040;DHT22;8124;48.634;8.120;2024-03-02T09:45:40;9.70;99.90
16040;DHT22;8124;48.634;8.120;2024-03-02T09:50:44;9.80;99.90
16040;DHT22;8124;48.634;8.120;2024-03-02T09:55:47;9.90;99.90
16040;DHT22;8124;48.634;8.120;2024-03-02T10:00:51;10.00;99.90
16040;DHT22;8124;48.634;8.120;2024-03-02T10:05:56;10.20;99.90
16040;DHT22;8124;48.634;8.120;2024-03-02T10:10:59;10.50;99.90
16040;DHT22;8124;48.634;8.120;2024-03-02T10:16:12;10.50;99.90
16040;DHT22;8124;48.634;8.120;2024-03-02T10:21:15;10.70;99.90
16040;DHT22;8124;48.634;8.120;2024-03-02T10:26:18;10.70;99.90
16040;DHT22;8124;48.634;8.120;2024-03-02T10:31:22;10.90;99.90
16040;DHT22;8124;48.634;8.120;2024-03-02T10:36:29;11.20;99.90
16040;DHT22;8124;48.634;8.120;2024-03-02T10:41:33;11.30;99.90
16040;DHT22;8124;48.634;8.120;2024-03-02T10:46:38;11.50;99.90
16040;DHT22;8124;48.634;8.120;2024-03-02T10:51:41;11.80;99.90
16040;DHT22;8124;48.634;8.120;2024-03-02T10:56:45;12.10;99.90
16040;DHT22;8124;48.634;8.120;2024-03-02T11:01:50;12.10;99.90
16040;DHT22;8124;48.634;8.120;2024-03-02T11:06:59;12.00;99.90
16040;DHT22;8124;48.634;8.120;2024-03-02T11:12:06;12.20;99.90
16040;DHT22;8124;48.634;8.120;2024-03-02T11:17:15;12.50;99.90
16040;DHT22;8124;48.634;8.120;2024-03-02T11:22:19;12.60;99.90
16040;DHT22;8124;48.634;8.120;2024-03-02T11:33:03;12.90;99.90
16040;DHT22;8124;48.634;8.120;2024-03-02T11:38:10;13.10;99.90
16040;DHT22;8124;48.634;8.120;2024-03-02T11:43:13;13.10;99.90
16040;DHT22;8124;48.634;8.120;2024-03-02T11:48:20;13.10;99.90
16040;DHT22;8124;48.634;8.120;2024-03-02T11:53:23;13.10;99.90
16040;DHT22;8124;48.634;8.120;2024-03-02T11:58:27;13.50;99.90
16040;DHT22;8124;48.634;8.120;2024-03-02T12:03:32;13.50;99.90
16040;DHT22;8124;48.634;8.120;2024-03-02T12:08:37;13.50;99.90
16040;DHT22;8124;48.634;8.120;2024-03-02T12:13:40;13.80;99.90
16040;DHT22;8124;48.634;8.120;2024-03-02T12:18:45;14.10;99.90
16040;DHT22;8124;48.634;8.120;2024-03-02T12:23:48;14.30;99.90
16040;DHT22;8124;48.634;8.120;2024-03-02T12:28:51;14.40;99.90
16040;DHT22;8124;48.634;8.120;2024-03-02T12:33:57;14.30;99.90
16040;DHT22;8124;48.634;8.120;2024-03-02T12:39:00;14.30;99.90
16040;DHT22;8124;48.634;8.120;2024-03-02T12:44:04;14.60;99.90
16040;DHT22;8124;48.634;8.120;2024-03-02T12:49:11;14.60;99.90
16040;DHT22;8124;48.634;8.120;2024-03-02T12:54:14;14.60;99.90
16040;DHT22;8124;48.634;8.120;2024-03-02T12:59:18;14.90;99.90
16040;DHT22;8124;48.634;8.120;2024-03-02T13:04:24;14.70;99.90
16040;DHT22;8124;48.634;8.120;2024-03-02T13:09:27;14.90;99.90
16040;DHT22;8124;48.634;8.120;2024-03-02T13:14:32;15.10;99.90
16040;DHT22;8124;48.634;8.120;2024-03-02T13:19:36;15.20;99.90
16040;DHT22;8124;48.634;8.120;2024-03-02T13:24:39;15.40;99.90
16040;DHT22;8124;48.634;8.120;2024-03-02T13:29:44;15.50;99.90
16040;DHT22;8124;48.634;8.120;2024-03-02T13:34:48;15.50;99.30
16040;DHT22;8124;48.634;8.120;2024-03-02T13:39:51;15.60;98.40
16040;DHT22;8124;48.634;8.120;2024-03-02T13:44:55;15.50;97.50
16040;DHT22;8124;48.634;8.120;2024-03-02T13:49:59;15.90;97.20
16040;DHT22;8124;48.634;8.120;2024-03-02T13:55:05;15.90;96.40
16040;DHT22;8124;48.634;8.120;2024-03-02T14:00:09;15.90;95.20
16040;DHT22;8124;48.634;8.120;2024-03-02T14:05:15;15.90;94.40
16040;DHT22;8124;48.634;8.120;2024-03-02T14:10:18;15.90;93.30
16040;DHT22;8124;48.634;8.120;2024-03-02T14:15:24;15.90;92.40
16040;DHT22;8124;48.634;8.120;2024-03-02T14:20:28;16.00;91.80
16040;DHT22;8124;48.634;8.120;2024-03-02T14:25:32;15.90;91.10
16040;DHT22;8124;48.634;8.120;2024-03-02T14:30:35;16.00;90.40
16040;DHT22;8124;48.634;8.120;2024-03-02T14:35:40;16.00;89.10
16040;DHT22;8124;48.634;8.120;2024-03-02T14:40:43;16.10;87.90
16040;DHT22;8124;48.634;8.120;2024-03-02T14:45:46;16.10;86.50
16040;DHT22;8124;48.634;8.120;2024-03-02T14:50:51;16.20;85.60
16040;DHT22;8124;48.634;8.120;2024-03-02T14:55:54;16.00;84.50
16040;DHT22;8124;48.634;8.120;2024-03-02T15:00:57;16.00;83.50
16040;DHT22;8124;48.634;8.120;2024-03-02T15:06:02;15.90;82.90
16040;DHT22;8124;48.634;8.120;2024-03-02T15:11:05;15.90;82.50
16040;DHT22;8124;48.634;8.120;2024-03-02T15:16:09;15.90;81.40
16040;DHT22;8124;48.634;8.120;2024-03-02T15:21:13;15.60;80.10
16040;DHT22;8124;48.634;8.120;2024-03-02T15:26:16;15.80;79.70
16040;DHT22;8124;48.634;8.120;2024-03-02T15:31:20;15.80;79.50
16040;DHT22;8124;48.634;8.120;2024-03-02T15:36:24;16.00;79.60
16040;DHT22;8124;48.634;8.120;2024-03-02T15:41:28;15.80;78.90
16040;DHT22;8124;48.634;8.120;2024-03-02T15:46:31;15.90;78.90
16040;DHT22;8124;48.634;8.120;2024-03-02T15:51:35;15.90;79.10
16040;DHT22;8124;48.634;8.120;2024-03-02T15:56:42;15.90;80.10
16040;DHT22;8124;48.634;8.120;2024-03-02T16:01:45;15.70;80.90
16040;DHT22;8124;48.634;8.120;2024-03-02T16:06:50;15.60;80.90
16040;DHT22;8124;48.634;8.120;2024-03-02T16:11:53;15.60;81.90
16040;DHT22;8124;48.634;8.120;2024-03-02T16:16:56;15.60;83.10
16040;DHT22;8124;48.634;8.120;2024-03-02T16:22:01;15.60;83.50
16040;DHT22;8124;48.634;8.120;2024-03-02T16:27:05;15.50;83.40
16040;DHT22;8124;48.634;8.120;2024-03-02T16:32:09;15.50;84.50
16040;DHT22;8124;48.634;8.120;2024-03-02T16:37:13;15.50;86.20
16040;DHT22;8124;48.634;8.120;2024-03-02T16:42:16;15.60;87.70
16040;DHT22;8124;48.634;8.120;2024-03-02T16:47:22;15.60;87.60
16040;DHT22;8124;48.634;8.120;2024-03-02T16:52:26;15.50;85.60
16040;DHT22;8124;48.634;8.120;2024-03-02T16:57:30;15.60;84.10
16040;DHT22;8124;48.634;8.120;2024-03-02T17:02:33;15.60;82.50
16040;DHT22;8124;48.634;8.120;2024-03-02T17:07:37;15.50;81.40
16040;DHT22;8124;48.634;8.120;2024-03-02T17:12:40;15.50;80.60
16040;DHT22;8124;48.634;8.120;2024-03-02T17:17:43;15.50;79.90
16040;DHT22;8124;48.634;8.120;2024-03-02T17:22:48;15.50;79.60
16040;DHT22;8124;48.634;8.120;2024-03-02T17:27:51;15.10;79.20
16040;DHT22;8124;48.634;8.120;2024-03-02T17:32:54;15.20;80.40
16040;DHT22;8124;48.634;8.120;2024-03-02T17:37:58;15.20;81.60
16040;DHT22;8124;48.634;8.120;2024-03-02T17:43:01;15.10;82.50
16040;DHT22;8124;48.634;8.120;2024-03-02T17:48:07;15.20;84.30
16040;DHT22;8124;48.634;8.120;2024-03-02T17:53:11;15.10;85.80
16040;DHT22;8124;48.634;8.120;2024-03-02T17:58:14;15.00;87.20
16040;DHT22;8124;48.634;8.120;2024-03-02T18:03:18;14.80;88.10
16040;DHT22;8124;48.634;8.120;2024-03-02T18:08:22;14.80;90.10
16040;DHT22;8124;48.634;8.120;2024-03-02T18:13:25;14.70;90.30
16040;DHT22;8124;48.634;8.120;2024-03-02T18:18:28;14.70;90.50
16040;DHT22;8124;48.634;8.120;2024-03-02T18:23:32;14.50;90.90
16040;DHT22;8124;48.634;8.120;2024-03-02T18:28:35;14.50;91.80
16040;DHT22;8124;48.634;8.120;2024-03-02T18:33:41;14.50;92.40
16040;DHT22;8124;48.634;8.120;2024-03-02T18:38:46;14.40;92.70
16040;DHT22;8124;48.634;8.120;2024-03-02T18:43:49;14.30;92.80
16040;DHT22;8124;48.634;8.120;2024-03-02T18:48:51;13.90;92.50
16040;DHT22;8124;48.634;8.120;2024-03-02T18:53:56;13.90;92.90
16040;DHT22;8124;48.634;8.120;2024-03-02T18:58:59;13.90;93.40
16040;DHT22;8124;48.634;8.120;2024-03-02T19:04:02;13.70;93.80
16040;DHT22;8124;48.634;8.120;2024-03-02T19:09:07;13.70;94.30
16040;DHT22;8124;48.634;8.120;2024-03-02T19:14:11;13.70;95.10
16040;DHT22;8124;48.634;8.120;2024-03-02T19:19:14;13.30;94.80
16040;DHT22;8124;48.634;8.120;2024-03-02T19:24:19;13.50;95.80
16040;DHT22;8124;48.634;8.120;2024-03-02T19:29:21;13.30;96.00
16040;DHT22;8124;48.634;8.120;2024-03-02T19:34:30;13.50;98.50
16040;DHT22;8124;48.634;8.120;2024-03-02T19:39:34;13.30;98.40
16040;DHT22;8124;48.634;8.120;2024-03-02T19:44:43;13.30;99.10
16040;DHT22;8124;48.634;8.120;2024-03-02T19:49:46;12.90;99.50
16040;DHT22;8124;48.634;8.120;2024-03-02T19:54:51;12.90;99.90
16040;DHT22;8124;48.634;8.120;2024-03-02T19:59:54;12.90;99.90
16040;DHT22;8124;48.634;8.120;2024-03-02T20:04:57;13.00;99.90
16040;DHT22;8124;48.634;8.120;2024-03-02T20:10:01;13.10;99.90
16040;DHT22;8124;48.634;8.120;2024-03-02T20:15:09;13.00;99.90
16040;DHT22;8124;48.634;8.120;2024-03-02T20:20:14;13.10;99.90
16040;DHT22;8124;48.634;8.120;2024-03-02T20:25:19;12.90;99.90
16040;DHT22;8124;48.634;8.120;2024-03-02T20:30:22;13.00;99.90
16040;DHT22;8124;48.634;8.120;2024-03-02T20:35:24;13.00;99.90
16040;DHT22;8124;48.634;8.120;2024-03-02T20:40:29;13.10;99.90
16040;DHT22;8124;48.634;8.120;2024-03-02T20:45:32;13.00;99.90
16040;DHT22;8124;48.634;8.120;2024-03-02T20:50:36;13.00;99.90
16040;DHT22;8124;48.634;8.120;2024-03-02T20:55:41;13.00;99.90
16040;DHT22;8124;48.634;8.120;2024-03-02T21:00:44;13.00;99.90
16040;DHT22;8124;48.634;8.120;2024-03-02T21:05:47;13.00;99.90
16040;DHT22;8124;48.634;8.120;2024-03-02T21:10:52;13.10;99.90
16040;DHT22;8124;48.634;8.120;2024-03-02T21:15:55;13.00;99.90
16040;DHT22;8124;48.634;8.120;2024-03-02T21:20:58;13.00;99.90
16040;DHT22;8124;48.634;8.120;2024-03-02T21:26:02;13.00;99.90
16040;DHT22;8124;48.634;8.120;2024-03-02T21:31:06;12.80;99.90
16040;DHT22;8124;48.634;8.120;2024-03-02T21:36:09;12.80;99.90
16040;DHT22;8124;48.634;8.120;2024-03-02T21:41:13;12.60;99.90
16040;DHT22;8124;48.634;8.120;2024-03-02T21:46:16;12.70;99.90
16040;DHT22;8124;48.634;8.120;2024-03-02T21:51:19;12.80;99.90
16040;DHT22;8124;48.634;8.120;2024-03-02T21:56:23;12.80;99.90
16040;DHT22;8124;48.634;8.120;2024-03-02T22:01:26;12.90;99.90
16040;DHT22;8124;48.634;8.120;2024-03-02T22:06:29;12.90;99.90
16040;DHT22;8124;48.634;8.120;2024-03-02T22:11:34;12.80;99.90
16040;DHT22;8124;48.634;8.120;2024-03-02T22:16:37;12.80;99.90
16040;DHT22;8124;48.634;8.120;2024-03-02T22:21:40;13.00;99.90
16040;DHT22;8124;48.634;8.120;2024-03-02T22:26:44;13.00;99.90
16040;DHT22;8124;48.634;8.120;2024-03-02T22:31:47;13.00;99.90
16040;DHT22;8124;48.634;8.120;2024-03-02T22:36:50;12.90;99.90
16040;DHT22;8124;48.634;8.120;2024-03-02T22:41:55;13.00;99.90
16040;DHT22;8124;48.634;8.120;2024-03-02T22:46:58;12.90;99.90
16040;DHT22;8124;48.634;8.120;2024-03-02T22:52:01;12.80;99.90
16040;DHT22;8124;48.634;8.120;2024-03-02T22:57:05;12.60;99.90
16040;DHT22;8124;48.634;8.120;2024-03-02T23:02:08;12.60;99.90
16040;DHT22;8124;48.634;8.120;2024-03-02T23:07:11;12.70;99.90
16040;DHT22;8124;48.634;8.120;2024-03-02T23:12:21;12.80;99.90
16040;DHT22;8124;48.634;8.120;2024-03-02T23:17:24;12.60;99.90
16040;DHT22;8124;48.634;8.120;2024-03-02T23:22:27;12.50;99.90
16040;DHT22;8124;48.634;8.120;2024-03-02T23:27:32;12.50;99.90
16040;DHT22;8124;48.634;8.120;2024-03-02T23:32:35;12.50;99.90
16040;DHT22;8124;48.634;8.120;2024-03-02T23:37:38;12.70;99.90
16040;DHT22;8124;48.634;8.120;2024-03-02T23:42:44;12.70;99.90
16040;DHT22;8124;48.634;8.120;2024-03-02T23:47:47;12.80;99.90
16040;DHT22;8124;48.634;8.120;2024-03-02T23:52:50;12.80;99.90
16040;DHT22;8124;48.634;8.120;2024-03-02T23:57:54;12.70;99.90
